Time;durP1;ratioP1;P1;durP2;ratioP2;P2;SDS_P1;SDS_P2;PMS_P1;PMS_P2;Temp;Humidity;BMP_temperature;BMP_pressure;BME280_temperature;BME280_humidity;BME280_pressure;Samples;Min_cycle;Max_cycle;Signal;HPM_P1;HPM_P2
2021/11/06 00:01:14;;;;;;;16.90;10.83;;;7.00;99.90;;;;;;5078342;28;20484;-62
2021/11/06 00:07:05;;;;;;;15.07;11.27;;;7.00;99.90;;;;;;5078435;28;20843;-61
2021/11/06 00:09:32;;;;;;;21.70;12.27;;;6.90;99.90;;;;;;5079379;28;20918;-61
2021/11/06 00:11:59;;;;;;;14.30;11.00;;;6.90;99.90;;;;;;5077582;28;20496;-61
2021/11/06 00:14:26;;;;;;;17.87;10.90;;;6.80;99.90;;;;;;5078364;28;20489;-61
2021/11/06 00:16:54;;;;;;;16.70;11.27;;;6.80;99.90;;;;;;5077685;28;20444;-61
2021/11/06 00:19:24;;;;;;;16.63;11.60;;;6.90;99.90;;;;;;5078411;28;20469;-61
2021/11/06 00:21:51;;;;;;;21.07;11.43;;;6.90;99.90;;;;;;5079065;28;20872;-61
2021/11/06 00:24:23;;;;;;;17.63;11.97;;;6.90;99.90;;;;;;5079080;28;20875;-61
2021/11/06 00:26:50;;;;;;;13.13;10.97;;;6.90;99.90;;;;;;5079050;28;20552;-61
2021/11/06 00:29:17;;;;;;;23.20;12.83;;;6.90;99.90;;;;;;5078258;28;20887;-61
2021/11/06 00:31:45;;;;;;;18.50;11.00;;;6.90;99.90;;;;;;5078975;28;20563;-61
2021/11/06 00:34:12;;;;;;;14.97;12.40;;;6.90;99.90;;;;;;5078874;28;20461;-61
2021/11/06 00:36:39;;;;;;;15.93;12.27;;;6.90;99.90;;;;;;5078879;28;20465;-61
2021/11/06 00:39:07;;;;;;;15.23;12.23;;;6.90;99.90;;;;;;5078377;28;20930;-61
2021/11/06 00:41:38;;;;;;;18.47;13.17;;;6.90;99.90;;;;;;5078798;28;20586;-61
2021/11/06 00:44:05;;;;;;;17.03;12.80;;;6.80;99.90;;;;;;5078501;28;20466;-61
2021/11/06 00:46:34;;;;;;;18.97;12.63;;;6.80;99.90;;;;;;5078754;28;20466;-61
2021/11/06 00:49:01;;;;;;;17.10;13.97;;;6.80;99.90;;;;;;5078634;28;20465;-61
2021/11/06 00:51:28;;;;;;;18.00;13.70;;;6.80;99.90;;;;;;5078042;28;20546;-61
2021/11/06 00:53:55;;;;;;;20.20;15.47;;;6.80;99.90;;;;;;5078361;28;20461;-61
2021/11/06 00:56:22;;;;;;;20.27;15.07;;;6.80;99.90;;;;;;5078309;28;20481;-61
2021/11/06 00:58:50;;;;;;;19.80;16.43;;;6.70;99.90;;;;;;5078600;28;20465;-61
2021/11/06 01:01:20;;;;;;;25.77;17.43;;;6.80;99.90;;;;;;5077299;28;20489;-61
2021/11/06 01:03:48;;;;;;;28.60;20.57;;;6.80;99.90;;;;;;5077758;28;20522;-61
2021/11/06 01:06:17;;;;;;;23.67;20.60;;;6.90;99.90;;;;;;5078321;28;20465;-61
2021/11/06 01:08:45;;;;;;;28.33;23.40;;;6.90;99.90;;;;;;5077997;28;20465;-61
2021/11/06 01:11:12;;;;;;;30.20;23.80;;;6.90;99.90;;;;;;5076621;28;20563;-61
2021/11/06 01:13:41;;;;;;;27.30;21.80;;;7.00;99.90;;;;;;5077100;28;20458;-61
2021/11/06 01:16:10;;;;;;;26.77;22.40;;;6.90;99.90;;;;;;5078042;28;20469;-61
2021/11/06 01:18:39;;;;;;;29.03;23.03;;;6.90;99.90;;;;;;5078334;28;20907;-61
2021/11/06 01:21:09;;;;;;;29.27;22.93;;;6.90;99.90;;;;;;5077270;28;20443;-61
2021/11/06 01:23:38;;;;;;;32.80;23.50;;;6.90;99.90;;;;;;5077669;28;20475;-61
2021/11/06 01:26:08;;;;;;;25.43;22.07;;;6.90;99.90;;;;;;5078110;28;20515;-61
2021/11/06 01:28:35;;;;;;;29.83;22.40;;;6.80;99.90;;;;;;5078203;28;20469;-61
2021/11/06 01:31:02;;;;;;;29.03;23.87;;;6.90;99.90;;;;;;5077593;28;20519;-61
2021/11/06 01:33:31;;;;;;;31.93;22.00;;;6.90;99.90;;;;;;5077518;28;20813;-61
2021/11/06 01:35:58;;;;;;;28.30;20.57;;;6.80;99.90;;;;;;5077000;28;20796;-61
2021/11/06 01:38:25;;;;;;;31.40;23.60;;;6.90;99.90;;;;;;5077657;28;20476;-61
2021/11/06 01:40:52;;;;;;;26.07;21.20;;;6.80;99.90;;;;;;5077670;28;20461;-61
2021/11/06 01:43:19;;;;;;;26.23;20.30;;;6.80;99.90;;;;;;5077146;28;20486;-61
2021/11/06 01:45:53;;;;;;;34.00;20.60;;;6.80;99.90;;;;;;5077379;28;20519;-61
2021/11/06 01:48:21;;;;;;;24.30;19.53;;;6.70;99.90;;;;;;5077610;28;20513;-61
2021/11/06 01:50:52;;;;;;;28.43;21.27;;;6.60;99.90;;;;;;5077566;28;20823;-61
2021/11/06 01:53:19;;;;;;;28.30;20.67;;;6.60;99.90;;;;;;5077249;28;20807;-61
2021/11/06 01:55:48;;;;;;;30.67;19.20;;;6.50;99.90;;;;;;5077299;28;20468;-61
2021/11/06 01:58:19;;;;;;;31.00;19.87;;;6.50;99.90;;;;;;5077633;28;20472;-61
2021/11/06 02:00:52;;;;;;;30.73;19.30;;;6.50;99.90;;;;;;5081877;28;20537;-61
2021/11/06 02:03:19;;;;;;;33.37;20.73;;;6.50;99.90;;;;;;5097453;28;20807;-61
2021/11/06 02:05:47;;;;;;;30.33;18.10;;;6.50;99.90;;;;;;5095095;28;20529;-61
2021/11/06 02:08:16;;;;;;;22.40;17.53;;;6.40;99.90;;;;;;5077272;28;20460;-61
2021/11/06 02:10:43;;;;;;;27.77;18.60;;;6.40;99.90;;;;;;5077242;28;20895;-61
2021/11/06 02:13:10;;;;;;;29.83;18.77;;;6.40;99.90;;;;;;5076972;28;20496;-61
2021/11/06 02:15:37;;;;;;;32.67;19.10;;;6.40;99.90;;;;;;5076172;28;20460;-61
2021/11/06 02:18:05;;;;;;;27.37;17.40;;;6.40;99.90;;;;;;5077332;28;20473;-61
2021/11/06 02:20:32;;;;;;;24.53;16.23;;;6.30;99.90;;;;;;5077125;28;20465;-61
2021/11/06 02:23:01;;;;;;;30.67;17.10;;;6.30;99.90;;;;;;5077491;28;20500;-61
2021/11/06 02:25:28;;;;;;;27.63;15.23;;;6.30;99.90;;;;;;5077214;28;20942;-61
2021/11/06 02:27:55;;;;;;;23.90;15.83;;;6.30;99.90;;;;;;5077087;28;20531;-61
2021/11/06 02:30:23;;;;;;;21.50;15.97;;;6.20;99.90;;;;;;5076824;28;20568;-61
2021/11/06 02:32:52;;;;;;;28.10;15.90;;;6.20;99.90;;;;;;5076340;28;20542;-61
2021/11/06 02:35:20;;;;;;;26.93;14.87;;;6.20;99.90;;;;;;5076614;28;20568;-61
2021/11/06 02:37:47;;;;;;;22.73;14.83;;;6.20;99.90;;;;;;5076837;28;20461;-61
2021/11/06 02:40:16;;;;;;;35.40;14.77;;;6.30;99.90;;;;;;5076783;28;20473;-61
2021/11/06 02:42:43;;;;;;;25.13;14.50;;;6.10;99.90;;;;;;5077269;28;20485;-61
2021/11/06 02:45:12;;;;;;;23.77;14.60;;;6.20;99.90;;;;;;5076457;28;20467;-61
2021/11/06 02:47:39;;;;;;;25.03;14.63;;;6.20;99.90;;;;;;5076966;28;20461;-61
2021/11/06 02:50:07;;;;;;;25.40;15.10;;;6.20;99.90;;;;;;5076751;28;20461;-61
2021/11/06 02:52:35;;;;;;;33.73;15.50;;;6.10;99.90;;;;;;5076897;28;20543;-61
2021/11/06 02:55:02;;;;;;;25.37;14.20;;;6.10;99.90;;;;;;5076058;28;20461;-61
2021/11/06 02:57:30;;;;;;;26.73;14.50;;;6.10;99.90;;;;;;5076496;28;20522;-61
2021/11/06 02:59:57;;;;;;;28.57;16.87;;;6.10;99.90;;;;;;5076325;28;20469;-61
2021/11/06 03:02:25;;;;;;;26.07;15.90;;;6.20;99.90;;;;;;5095295;28;20457;-61
2021/11/06 03:04:52;;;;;;;21.57;16.00;;;6.20;99.90;;;;;;5097277;28;20468;-61
2021/11/06 03:07:20;;;;;;;24.97;16.03;;;6.20;99.90;;;;;;5082059;28;20743;-61
2021/11/06 03:09:47;;;;;;;24.67;17.33;;;6.20;99.90;;;;;;5076344;28;20453;-61
2021/11/06 03:12:16;;;;;;;32.53;20.43;;;6.10;99.90;;;;;;5076629;28;20503;-61
2021/11/06 03:14:45;;;;;;;27.10;17.23;;;6.20;99.90;;;;;;5076613;28;20491;-61
2021/11/06 03:17:13;;;;;;;29.83;17.90;;;6.10;99.90;;;;;;5076266;28;20469;-61
2021/11/06 03:19:43;;;;;;;26.17;17.07;;;6.10;99.90;;;;;;5076151;28;20511;-61
2021/11/06 03:22:10;;;;;;;33.20;18.77;;;6.10;99.90;;;;;;5076612;28;20484;-61
2021/11/06 03:24:38;;;;;;;26.43;19.20;;;6.10;99.90;;;;;;5076905;28;20469;-61
2021/11/06 03:27:06;;;;;;;31.03;21.73;;;6.00;99.90;;;;;;5078614;28;20882;-61
2021/11/06 03:29:36;;;;;;;25.10;17.73;;;6.00;99.90;;;;;;5080111;28;20535;-61
2021/11/06 03:32:07;;;;;;;29.70;18.30;;;6.00;99.90;;;;;;5079198;28;20538;-61
2021/11/06 03:34:34;;;;;;;28.73;20.30;;;6.00;99.90;;;;;;5079868;28;20515;-61
2021/11/06 03:37:01;;;;;;;27.83;19.73;;;6.00;99.90;;;;;;5079119;28;20494;-61
2021/11/06 03:39:28;;;;;;;30.93;18.50;;;6.00;99.90;;;;;;5079802;28;20887;-61
2021/11/06 03:41:56;;;;;;;25.13;17.97;;;5.90;99.90;;;;;;5079976;28;20461;-61
2021/11/06 03:44:24;;;;;;;25.63;18.43;;;6.00;99.90;;;;;;5080044;28;20464;-61
2021/11/06 03:46:56;;;;;;;30.03;20.53;;;6.00;99.90;;;;;;5080114;28;20465;-61
2021/11/06 03:49:24;;;;;;;32.50;20.97;;;6.00;99.90;;;;;;5079217;28;20461;-61
2021/11/06 03:51:52;;;;;;;34.70;21.23;;;6.00;99.90;;;;;;5079815;28;20530;-61
2021/11/06 03:54:22;;;;;;;29.00;18.37;;;6.00;99.90;;;;;;5079746;28;20493;-61
2021/11/06 03:56:49;;;;;;;31.30;20.33;;;5.90;99.90;;;;;;5079802;28;20465;-61
2021/11/06 03:59:16;;;;;;;27.77;19.17;;;5.90;99.90;;;;;;5079625;28;20516;-61
2021/11/06 04:01:43;;;;;;;25.43;20.93;;;5.90;99.90;;;;;;5091541;28;20492;-61
2021/11/06 04:04:10;;;;;;;26.10;18.10;;;5.90;99.90;;;;;;5099888;28;20503;-61
2021/11/06 04:06:38;;;;;;;28.40;19.70;;;5.90;99.90;;;;;;5089878;28;20464;-61
2021/11/06 04:09:06;;;;;;;29.37;18.87;;;5.80;99.90;;;;;;5079120;28;20495;-61
2021/11/06 04:11:44;;;;;;;34.07;18.30;;;5.80;99.90;;;;;;5079133;28;20523;-61
2021/11/06 04:14:11;;;;;;;27.20;18.97;;;5.80;99.90;;;;;;5079517;28;20613;-61
2021/11/06 04:16:38;;;;;;;29.80;18.00;;;5.80;99.90;;;;;;5079393;28;20465;-61
2021/11/06 04:19:05;;;;;;;26.13;16.00;;;5.80;99.90;;;;;;5079106;28;20465;-61
2021/11/06 04:21:33;;;;;;;30.30;17.63;;;5.80;99.90;;;;;;5078914;28;20489;-61
2021/11/06 04:24:01;;;;;;;24.20;17.13;;;5.70;99.90;;;;;;5079253;28;20478;-61
2021/11/06 04:26:28;;;;;;;24.20;15.33;;;5.70;99.90;;;;;;5079197;28;20461;-61
2021/11/06 04:28:57;;;;;;;16.77;12.70;;;5.70;99.90;;;;;;5079319;28;20469;-61
2021/11/06 04:31:27;;;;;;;18.47;14.30;;;5.70;99.90;;;;;;5078915;28;20784;-61
2021/11/06 04:33:54;;;;;;;22.37;14.27;;;5.70;99.90;;;;;;5076893;28;20471;-61
2021/11/06 04:36:21;;;;;;;21.30;15.30;;;5.60;99.90;;;;;;5079340;28;20465;-61
2021/11/06 04:38:48;;;;;;;28.77;16.83;;;5.60;99.90;;;;;;5078347;28;20469;-61
2021/11/06 04:41:17;;;;;;;30.27;18.60;;;5.50;99.90;;;;;;5078628;28;20530;-61
2021/11/06 04:43:44;;;;;;;24.07;17.73;;;5.50;99.90;;;;;;5078624;28;20465;-61
2021/11/06 04:46:11;;;;;;;28.57;18.80;;;5.50;99.90;;;;;;5078716;28;20465;-61
2021/11/06 04:48:38;;;;;;;30.43;19.37;;;5.50;99.90;;;;;;5078849;28;20461;-61
2021/11/06 04:51:05;;;;;;;28.77;18.97;;;5.40;99.90;;;;;;5078495;28;20515;-61
2021/11/06 04:53:32;;;;;;;32.10;21.53;;;5.40;99.90;;;;;;5078558;28;20542;-61
2021/11/06 04:55:59;;;;;;;37.23;19.73;;;5.50;99.90;;;;;;5078350;28;20812;-61
2021/11/06 04:58:27;;;;;;;30.50;22.73;;;5.40;99.90;;;;;;5078723;28;20831;-61
2021/11/06 05:00:54;;;;;;;35.60;23.23;;;5.40;99.90;;;;;;5084427;28;20534;-61
2021/11/06 05:03:24;;;;;;;35.50;22.47;;;5.50;99.90;;;;;;5098498;28;20475;-61
2021/11/06 05:05:52;;;;;;;32.47;21.90;;;5.40;99.90;;;;;;5095906;28;20735;-61
2021/11/06 05:08:19;;;;;;;34.20;21.73;;;5.40;99.90;;;;;;5078255;28;20461;-61
2021/11/06 05:10:46;;;;;;;33.30;21.93;;;5.40;99.90;;;;;;5078301;28;20465;-61
2021/11/06 05:13:13;;;;;;;33.03;21.00;;;5.40;99.90;;;;;;5077686;28;20578;-61
2021/11/06 05:15:42;;;;;;;31.27;21.50;;;5.40;99.90;;;;;;5077347;28;20559;-61
2021/11/06 05:18:10;;;;;;;32.00;20.57;;;5.30;99.90;;;;;;5078873;28;20471;-61
2021/11/06 05:20:38;;;;;;;31.73;20.80;;;5.40;99.90;;;;;;5078180;28;20489;-61
2021/11/06 05:23:05;;;;;;;34.40;21.03;;;5.40;99.90;;;;;;5077796;28;20815;-61
2021/11/06 05:25:32;;;;;;;31.70;18.77;;;5.30;99.90;;;;;;5077986;28;20957;-61
2021/11/06 05:27:59;;;;;;;30.20;20.23;;;5.30;99.90;;;;;;5078273;28;20767;-61
2021/11/06 05:30:27;;;;;;;36.43;19.93;;;5.30;99.90;;;;;;5058284;28;20520;-61
2021/11/06 05:32:55;;;;;;;27.97;18.53;;;5.30;99.90;;;;;;5058398;28;20487;-61
2021/11/06 05:35:22;;;;;;;30.60;20.40;;;5.30;99.90;;;;;;5058493;28;20524;-61
2021/11/06 05:37:50;;;;;;;34.87;19.53;;;5.30;99.90;;;;;;5069456;28;20855;-61
2021/11/06 05:40:17;;;;;;;31.73;20.80;;;5.30;99.90;;;;;;5078710;28;20472;-61
2021/11/06 05:42:44;;;;;;;30.87;20.27;;;5.40;99.90;;;;;;5077867;28;20891;-61
2021/11/06 05:45:12;;;;;;;31.80;20.93;;;5.30;99.90;;;;;;5077597;28;20465;-61
2021/11/06 05:47:39;;;;;;;30.50;19.97;;;5.30;99.90;;;;;;5077779;28;20556;-61
2021/11/06 05:50:10;;;;;;;29.80;19.27;;;5.30;99.90;;;;;;5077640;28;20503;-61
2021/11/06 05:52:37;;;;;;;35.53;19.80;;;5.30;99.90;;;;;;5077807;28;20555;-61
2021/11/06 05:55:06;;;;;;;29.00;20.47;;;5.30;99.90;;;;;;5077120;28;20493;-61
2021/11/06 05:57:35;;;;;;;36.17;21.23;;;5.30;99.90;;;;;;5074912;28;20480;-61
2021/11/06 06:00:02;;;;;;;34.80;19.73;;;5.30;99.90;;;;;;5076139;28;20538;-61
2021/11/06 06:02:31;;;;;;;45.97;23.17;;;5.30;99.90;;;;;;5078436;28;20436;-61
2021/11/06 06:04:58;;;;;;;31.53;20.17;;;5.30;99.90;;;;;;5069321;28;20465;-61
2021/11/06 06:07:30;;;;;;;34.17;21.57;;;5.30;99.90;;;;;;5076480;28;20472;-61
2021/11/06 06:09:57;;;;;;;32.60;20.13;;;5.30;99.90;;;;;;5077249;28;20480;-61
2021/11/06 06:12:25;;;;;;;28.13;20.63;;;5.30;99.90;;;;;;5077440;28;20440;-61
2021/11/06 06:14:52;;;;;;;29.50;21.70;;;5.30;99.90;;;;;;5057531;28;20494;-61
2021/11/06 06:17:19;;;;;;;29.97;19.70;;;5.30;99.90;;;;;;5076188;28;20479;-61
2021/11/06 06:19:46;;;;;;;32.77;21.10;;;5.20;99.90;;;;;;5076935;28;20485;-61
2021/11/06 06:22:17;;;;;;;38.90;21.50;;;5.20;99.90;;;;;;5077196;28;20435;-61
2021/11/06 06:24:45;;;;;;;38.03;20.63;;;5.20;99.90;;;;;;5074481;28;20480;-61
2021/11/06 06:27:12;;;;;;;34.13;21.50;;;5.30;99.90;;;;;;5076146;28;20470;-61
2021/11/06 06:29:39;;;;;;;34.20;21.17;;;5.30;99.90;;;;;;5074911;28;20469;-61
2021/11/06 06:32:07;;;;;;;30.83;21.07;;;5.30;99.90;;;;;;5075743;28;20517;-61
2021/11/06 06:34:34;;;;;;;39.60;22.93;;;5.40;99.90;;;;;;5077188;28;20493;-61
2021/11/06 06:37:01;;;;;;;41.07;22.13;;;5.40;99.90;;;;;;5077019;28;21496;-61
2021/11/06 06:39:30;;;;;;;36.87;21.83;;;5.40;99.90;;;;;;5076636;28;20475;-60
2021/11/06 06:41:59;;;;;;;42.40;23.33;;;5.40;99.90;;;;;;5076862;28;20768;-60
2021/11/06 06:44:26;;;;;;;33.00;21.10;;;5.40;99.90;;;;;;5077077;28;20955;-60
2021/11/06 06:46:55;;;;;;;34.77;21.50;;;5.30;99.90;;;;;;5077125;28;20876;-60
2021/11/06 06:49:25;;;;;;;35.97;21.50;;;5.40;99.90;;;;;;5076653;28;20768;-60
2021/11/06 06:51:52;;;;;;;30.87;21.00;;;5.40;99.90;;;;;;5076771;28;20465;-60
2021/11/06 06:54:19;;;;;;;32.90;20.43;;;5.40;99.90;;;;;;5076805;28;20496;-60
2021/11/06 06:56:46;;;;;;;29.17;20.50;;;5.40;99.90;;;;;;5077028;28;20589;-60
2021/11/06 06:59:14;;;;;;;36.23;20.17;;;5.50;99.90;;;;;;5076425;28;20772;-60
2021/11/06 07:01:41;;;;;;;31.70;21.43;;;5.50;99.90;;;;;;5077681;28;20477;-60
2021/11/06 07:04:09;;;;;;;33.70;20.97;;;5.60;99.90;;;;;;5080902;28;20461;-60
2021/11/06 07:06:36;;;;;;;30.67;19.30;;;5.60;99.90;;;;;;5080072;28;20461;-60
2021/11/06 07:09:03;;;;;;;27.63;18.80;;;5.70;99.90;;;;;;5080046;28;20465;-60
2021/11/06 07:11:30;;;;;;;25.53;17.43;;;5.80;99.90;;;;;;5080392;28;20518;-61
2021/11/06 07:13:57;;;;;;;23.47;17.60;;;5.80;99.90;;;;;;5079758;28;20488;-61
2021/11/06 07:16:26;;;;;;;26.70;17.83;;;5.90;99.90;;;;;;5079233;28;20468;-61
2021/11/06 07:18:53;;;;;;;26.47;18.80;;;5.90;99.90;;;;;;5079266;28;20465;-61
2021/11/06 07:21:20;;;;;;;24.53;16.40;;;5.90;99.90;;;;;;5079687;28;20789;-61
2021/11/06 07:23:50;;;;;;;22.20;15.80;;;6.00;99.90;;;;;;5079546;28;20522;-61
2021/11/06 07:26:19;;;;;;;19.50;14.30;;;6.00;99.90;;;;;;5079680;28;20471;-61
2021/11/06 07:28:46;;;;;;;23.20;15.10;;;6.00;99.90;;;;;;5078632;28;20787;-61
2021/11/06 07:31:14;;;;;;;24.60;14.77;;;6.10;99.90;;;;;;5079554;28;20898;-61
2021/11/06 07:33:46;;;;;;;19.57;14.87;;;6.10;99.90;;;;;;5079698;28;20485;-61
2021/11/06 07:36:15;;;;;;;23.27;14.17;;;6.10;99.90;;;;;;5080717;28;20472;-61
2021/11/06 07:38:44;;;;;;;19.00;14.40;;;6.20;99.90;;;;;;5080078;28;20469;-61
2021/11/06 07:41:12;;;;;;;21.00;14.50;;;6.20;99.90;;;;;;5079761;28;20468;-61
2021/11/06 07:43:41;;;;;;;22.90;14.53;;;6.30;99.90;;;;;;5080501;28;20871;-61
2021/11/06 07:46:09;;;;;;;20.03;14.83;;;6.20;99.90;;;;;;5097470;28;20529;-61
2021/11/06 07:48:40;;;;;;;16.63;13.43;;;6.30;99.90;;;;;;5100374;28;20518;-61
2021/11/06 07:51:08;;;;;;;19.30;14.17;;;6.40;99.90;;;;;;5096215;28;20855;-62
2021/11/06 07:53:37;;;;;;;18.40;13.57;;;6.60;99.90;;;;;;5079453;28;20457;-61
2021/11/06 07:56:05;;;;;;;18.10;12.03;;;6.80;99.90;;;;;;5079969;28;20461;-61
2021/11/06 07:58:34;;;;;;;17.77;11.67;;;6.80;99.90;;;;;;5075154;28;20464;-61
2021/11/06 08:01:02;;;;;;;15.47;11.80;;;7.10;99.90;;;;;;5077938;28;20546;-61
2021/11/06 08:03:29;;;;;;;14.93;11.90;;;7.20;99.90;;;;;;5078976;28;20465;-61
2021/11/06 08:06:01;;;;;;;17.83;12.77;;;7.40;99.90;;;;;;5076036;28;20461;-61
2021/11/06 08:08:33;;;;;;;14.63;12.07;;;7.50;99.90;;;;;;5077817;28;20462;-62
2021/11/06 08:11:00;;;;;;;16.10;11.13;;;7.50;99.90;;;;;;5078125;28;20468;-61
2021/11/06 08:13:30;;;;;;;15.90;12.67;;;7.40;99.90;;;;;;5076609;28;20963;-61
2021/11/06 08:15:57;;;;;;;12.47;9.80;;;7.40;99.90;;;;;;5078554;28;20469;-62
2021/11/06 08:18:24;;;;;;;13.40;8.93;;;7.20;99.90;;;;;;5079112;28;20511;-61
2021/11/06 08:20:51;;;;;;;16.30;11.27;;;7.10;99.90;;;;;;5079143;28;20465;-61
2021/11/06 08:23:18;;;;;;;13.77;10.83;;;7.10;99.90;;;;;;5079103;28;20466;-61
2021/11/06 08:25:47;;;;;;;15.17;10.60;;;7.20;99.90;;;;;;5079029;28;20462;-61
2021/11/06 08:28:14;;;;;;;15.90;11.80;;;7.20;99.90;;;;;;5079153;28;20475;-61
2021/11/06 08:30:41;;;;;;;25.90;16.10;;;7.30;99.90;;;;;;5079218;28;20465;-61
2021/11/06 08:33:11;;;;;;;13.67;10.63;;;7.60;99.90;;;;;;5078873;28;20461;-61
2021/11/06 08:35:39;;;;;;;14.77;11.00;;;7.70;99.90;;;;;;5078286;28;20493;-61
2021/11/06 08:38:06;;;;;;;18.60;12.47;;;7.80;99.90;;;;;;5077751;28;20469;-61
2021/11/06 08:40:36;;;;;;;14.57;10.83;;;7.80;99.90;;;;;;5079040;28;20461;-61
2021/11/06 08:43:04;;;;;;;15.90;12.00;;;8.10;99.90;;;;;;5079100;28;20526;-61
2021/11/06 08:45:31;;;;;;;22.50;14.97;;;8.40;99.90;;;;;;5078566;28;20515;-62
2021/11/06 08:48:01;;;;;;;18.23;14.33;;;8.70;99.90;;;;;;5078554;28;20514;-62
2021/11/06 08:50:32;;;;;;;10.17;8.33;;;8.70;99.90;;;;;;5078728;28;20743;-62
2021/11/06 08:53:01;;;;;;;10.73;8.80;;;8.70;99.90;;;;;;5078682;28;20978;-61
2021/11/06 08:55:31;;;;;;;16.93;11.53;;;8.80;99.90;;;;;;5077678;28;20959;-61
2021/11/06 08:57:59;;;;;;;15.33;10.23;;;8.80;99.90;;;;;;5077753;28;20950;-61
2021/11/06 09:00:34;;;;;;;8.90;7.40;;;8.80;99.90;;;;;;5080711;28;20489;-62
2021/11/06 09:03:06;;;;;;;9.93;8.40;;;8.90;6.30;;;;;;5098146;28;20559;-61
2021/11/06 09:05:33;;;;;;;14.47;8.83;;;8.90;1.00;;;;;;5098786;28;20816;-61
2021/11/06 09:08:01;;;;;;;10.70;7.93;;;8.90;1.00;;;;;;5078471;28;20469;-61
2021/11/06 09:10:29;;;;;;;8.90;7.47;;;8.90;1.00;;;;;;5078771;28;20750;-62
2021/11/06 09:12:57;;;;;;;10.10;7.90;;;9.20;1.00;;;;;;5078432;28;20538;-61
2021/11/06 09:15:24;;;;;;;10.97;8.03;;;9.40;1.00;;;;;;5078184;28;20580;-62
2021/11/06 09:17:53;;;;;;;9.33;6.83;;;9.50;1.00;;;;;;5078146;28;20821;-62
2021/11/06 09:20:23;;;;;;;10.43;6.80;;;9.80;1.00;;;;;;5078165;28;20757;-62
2021/11/06 09:22:51;;;;;;;8.60;7.73;;;9.90;1.00;;;;;;5078137;28;20465;-62
2021/11/06 09:25:27;;;;;;;7.83;6.70;;;10.00;1.00;;;;;;5077783;28;20461;-61
2021/11/06 09:27:53;;;;;;;8.10;6.73;;;10.00;1.00;;;;;;5078332;28;20856;-61
2021/11/06 09:30:21;;;;;;;9.17;7.00;;;10.00;1.00;;;;;;5077878;28;20457;-61
2021/11/06 09:32:49;;;;;;;8.23;6.97;;;10.10;1.00;;;;;;5077305;28;20457;-61
2021/11/06 09:35:18;;;;;;;8.67;7.13;;;10.30;1.00;;;;;;5077340;28;20493;-61
2021/11/06 09:37:45;;;;;;;8.50;7.67;;;10.30;1.00;;;;;;5077787;28;20520;-60
2021/11/06 09:40:12;;;;;;;9.30;8.30;;;10.40;1.00;;;;;;5076928;28;20827;-61
2021/11/06 09:42:43;;;;;;;10.60;6.57;;;10.10;1.00;;;;;;5078055;28;20488;-61
2021/11/06 09:45:12;;;;;;;7.63;6.87;;;10.10;1.00;;;;;;5077161;28;20457;-60
2021/11/06 09:47:43;;;;;;;11.20;6.83;;;10.30;1.00;;;;;;5077895;28;20468;-60
2021/11/06 09:50:15;;;;;;;12.77;7.07;;;10.20;1.00;;;;;;5077593;28;20465;-60
2021/11/06 09:52:44;;;;;;;7.03;6.17;;;10.30;1.00;;;;;;5077707;28;20903;-60
2021/11/06 09:55:16;;;;;;;10.73;7.90;;;9.90;1.00;;;;;;5077427;28;20493;-61
2021/11/06 09:57:45;;;;;;;9.53;7.07;;;9.50;1.00;;;;;;5080332;28;20428;-60
2021/11/06 10:00:13;;;;;;;7.50;6.13;;;9.20;1.00;;;;;;5083563;28;20485;-60
2021/11/06 10:02:41;;;;;;;10.47;7.60;;;9.40;1.00;;;;;;5088663;28;20453;-58
2021/11/06 10:05:12;;;;;;;8.20;6.20;;;9.40;1.00;;;;;;5085411;28;20449;-61
2021/11/06 10:07:46;;;;;;;10.80;6.80;;;9.50;1.00;;;;;;5085421;28;20457;-60
2021/11/06 10:10:16;;;;;;;7.70;6.57;;;9.50;1.00;;;;;;5081516;28;20501;-60
2021/11/06 10:12:51;;;;;;;9.10;6.77;;;9.30;1.00;;;;;;5087724;28;20445;-56
2021/11/06 10:15:21;;;;;;;8.93;6.80;;;9.40;1.00;;;;;;5086222;28;20552;-59
2021/11/06 10:17:53;;;;;;;9.33;7.17;;;9.30;1.00;;;;;;5083882;28;20453;-57
2021/11/06 10:20:31;;;;;;;9.00;7.97;;;9.20;1.00;;;;;;5085837;28;20456;-57
2021/11/06 10:23:08;;;;;;;8.93;7.00;;;9.00;1.00;;;;;;5086915;28;20457;-57
2021/11/06 10:25:38;;;;;;;7.00;6.23;;;9.00;1.00;;;;;;5084897;28;20450;-60
2021/11/06 10:28:08;;;;;;;12.40;7.70;;;9.00;1.00;;;;;;5080970;28;20457;-59
2021/11/06 10:30:38;;;;;;;11.73;7.70;;;9.10;1.00;;;;;;5084443;28;20522;-60
2021/11/06 10:33:09;;;;;;;8.17;6.90;;;9.50;1.00;;;;;;5073773;28;20493;-57
2021/11/06 10:35:38;;;;;;;8.50;7.10;;;9.60;1.00;;;;;;5088686;28;20544;-58
2021/11/06 10:38:12;;;;;;;10.77;6.40;;;9.70;1.00;;;;;;5087292;28;20452;-58
2021/11/06 10:40:42;;;;;;;10.47;7.93;;;9.70;1.00;;;;;;5095274;28;20460;-60
2021/11/06 10:43:14;;;;;;;8.67;7.33;;;9.70;1.00;;;;;;5097229;28;20517;-53
2021/11/06 10:45:50;;;;;;;11.33;9.73;;;9.60;1.00;;;;;;5097019;28;20503;-61
2021/11/06 10:48:18;;;;;;;11.60;8.70;;;10.00;1.00;;;;;;5097082;28;20935;-61
2021/11/06 10:50:55;;;;;;;9.20;7.20;;;10.40;1.00;;;;;;5096994;28;20461;-60
2021/11/06 10:53:44;;;;;;;11.60;9.07;;;11.10;1.00;;;;;;5078904;28;20450;-61
2021/11/06 10:56:30;;;;;;;11.13;7.57;;;11.60;1.00;;;;;;5074787;28;20547;-60
2021/11/06 10:59:00;;;;;;;11.37;7.77;;;11.50;1.00;;;;;;5076307;28;20461;-60
2021/11/06 11:01:30;;;;;;;9.60;8.10;;;11.00;1.00;;;;;;5087117;28;20480;-60
2021/11/06 11:04:03;;;;;;;8.37;6.93;;;10.60;1.00;;;;;;5087105;28;20469;-61
2021/11/06 11:06:40;;;;;;;9.10;8.20;;;10.60;1.00;;;;;;5076633;28;20453;-60
2021/11/06 11:09:13;;;;;;;7.87;7.07;;;10.70;1.00;;;;;;5073791;28;20463;-60
2021/11/06 11:11:45;;;;;;;17.40;12.90;;;10.80;1.00;;;;;;5072487;28;20461;-60
2021/11/06 11:14:14;;;;;;;10.47;8.87;;;11.00;1.00;;;;;;5055967;28;20721;-59
2021/11/06 11:16:51;;;;;;;11.53;8.10;;;11.10;1.00;;;;;;5060491;28;20489;-59
2021/11/06 11:19:19;;;;;;;8.47;7.67;;;11.30;1.00;;;;;;5076811;28;20463;-60
2021/11/06 11:21:49;;;;;;;10.73;8.27;;;11.60;1.00;;;;;;5076411;28;20435;-60
2021/11/06 11:24:19;;;;;;;7.70;6.90;;;12.00;1.00;;;;;;5076440;28;20465;-61
2021/11/06 11:26:49;;;;;;;10.70;6.87;;;12.30;1.00;;;;;;5076645;28;20511;-59
2021/11/06 11:29:25;;;;;;;7.27;6.57;;;12.70;1.00;;;;;;5076197;28;20465;-59
2021/11/06 11:31:52;;;;;;;8.53;7.40;;;12.80;99.90;;;;;;5076472;28;20472;-59
2021/11/06 11:34:20;;;;;;;9.83;8.70;;;12.70;99.90;;;;;;5076563;28;20466;-61
2021/11/06 11:36:53;;;;;;;8.10;7.30;;;12.60;99.90;;;;;;5076355;28;20551;-59
2021/11/06 11:39:23;;;;;;;7.43;6.63;;;12.50;99.90;;;;;;5075762;28;20903;-60
2021/11/06 11:42:26;;;;;;;9.30;8.03;;;12.40;99.90;;;;;;5075875;28;20782;-61
2021/11/06 11:45:28;;;;;;;8.17;7.37;;;12.10;99.90;;;;;;5076170;28;20518;-60
2021/11/06 11:48:02;;;;;;;8.17;6.60;;;12.00;99.90;;;;;;5078349;28;20473;-57
2021/11/06 11:50:35;;;;;;;8.23;6.57;;;11.70;99.90;;;;;;5062073;28;20573;-56
2021/11/06 11:53:06;;;;;;;9.00;7.13;;;11.60;99.90;;;;;;5059431;28;20465;-58
2021/11/06 11:55:40;;;;;;;6.73;6.00;;;11.30;1.00;;;;;;5063220;28;20947;-56
2021/11/06 11:58:11;;;;;;;8.37;6.77;;;11.30;1.00;;;;;;5079046;28;20726;-56
2021/11/06 12:00:41;;;;;;;6.73;6.13;;;11.30;1.00;;;;;;5074134;28;20498;-57
2021/11/06 12:03:09;;;;;;;7.37;5.80;;;11.30;1.00;;;;;;5099382;28;21016;-56
2021/11/06 12:05:38;;;;;;;6.70;5.77;;;11.30;1.00;;;;;;5098872;28;20456;-59
2021/11/06 12:08:29;;;;;;;8.23;5.40;;;11.20;1.00;;;;;;5079653;28;20498;-60
2021/11/06 12:11:15;;;;;;;6.97;5.17;;;11.30;1.00;;;;;;5078751;28;20534;-54
2021/11/06 12:13:51;;;;;;;6.40;5.33;;;11.40;1.00;;;;;;5075373;28;20803;-59
2021/11/06 12:16:21;;;;;;;9.13;6.37;;;11.50;1.00;;;;;;5077161;28;20534;-58
2021/11/06 12:18:56;;;;;;;7.00;5.23;;;11.40;1.00;;;;;;5079091;28;20756;-57
2021/11/06 12:21:31;;;;;;;6.80;5.60;;;11.80;1.00;;;;;;5077839;28;20472;-59
2021/11/06 12:24:20;;;;;;;5.13;4.63;;;12.10;1.00;;;;;;5079416;28;20439;-57
2021/11/06 12:26:53;;;;;;;4.40;4.00;;;12.10;1.00;;;;;;5079134;28;20732;-60
2021/11/06 12:29:47;;;;;;;5.70;4.50;;;12.20;99.90;;;;;;5078982;28;20774;-57
2021/11/06 12:32:29;;;;;;;5.53;4.30;;;12.10;99.90;;;;;;5078208;28;20514;-59
2021/11/06 12:34:58;;;;;;;4.63;4.20;;;12.20;99.90;;;;;;5078808;28;20894;-59
2021/11/06 12:37:56;;;;;;;4.17;3.77;;;12.00;99.90;;;;;;5078845;28;20503;-59
2021/11/06 12:40:38;;;;;;;4.40;3.80;;;11.90;99.90;;;;;;5078850;28;20462;-59
2021/11/06 12:43:16;;;;;;;4.67;4.17;;;11.70;99.90;;;;;;5077423;28;20457;-59
2021/11/06 12:45:47;;;;;;;4.50;3.37;;;11.70;1.00;;;;;;5078502;28;20472;-59
2021/11/06 12:48:17;;;;;;;5.60;3.77;;;11.80;1.00;;;;;;5077820;28;20466;-59
2021/11/06 12:50:46;;;;;;;6.50;4.00;;;11.70;99.90;;;;;;5078624;28;20469;-60
2021/11/06 12:53:24;;;;;;;4.70;3.53;;;11.70;1.00;;;;;;5078243;28;20505;-59
2021/11/06 12:56:02;;;;;;;5.10;4.27;;;11.80;1.00;;;;;;5078273;28;20488;-59
2021/11/06 12:58:31;;;;;;;4.23;3.40;;;12.00;1.00;;;;;;5078464;28;20464;-59
